Time;durP1;ratioP1;P1;durP2;ratioP2;P2;SDS_P1;SDS_P2;PMS_P1;PMS_P2;Temp;Humidity;BMP_temperature;BMP_pressure;BME280_temperature;BME280_humidity;BME280_pressure;Samples;Min_cycle;Max_cycle;Signal;HPM_P1;HPM_P2
2021/12/12 00:00:12;;;;;;;;;4.20;3.80;;;;;4.33;81.18;100440.50;5050105;28;8878;-80
2021/12/12 00:02:55;;;;;;;;;8.20;6.60;;;;;4.30;81.14;100435.38;5050342;28;8858;-81
2021/12/12 00:05:23;;;;;;;;;2.20;2.20;;;;;4.28;81.28;100450.41;5050352;28;8888;-81
2021/12/12 00:07:51;;;;;;;;;4.60;4.60;;;;;4.29;81.27;100449.47;5048132;28;8858;-81
2021/12/12 00:10:19;;;;;;;;;4.00;3.00;;;;;4.25;81.47;100443.47;5049154;28;9485;-81
2021/12/12 00:12:47;;;;;;;;;8.60;7.80;;;;;4.23;81.55;100441.84;5050014;28;9531;-81
2021/12/12 00:15:15;;;;;;;;;3.60;3.60;;;;;4.22;81.08;100450.69;5049410;28;8838;-81
2021/12/12 00:17:43;;;;;;;;;4.00;4.00;;;;;4.20;81.66;100457.81;5048512;28;9565;-81
2021/12/12 00:20:10;;;;;;;;;4.00;4.00;;;;;4.16;81.55;100454.47;5050229;28;8862;-81
2021/12/12 00:22:38;;;;;;;;;3.20;3.20;;;;;4.15;81.46;100452.75;5049257;28;8850;-81
2021/12/12 00:25:06;;;;;;;;;3.00;3.00;;;;;4.13;81.34;100430.84;5047910;28;8992;-82
2021/12/12 00:27:33;;;;;;;;;7.40;6.20;;;;;4.12;81.37;100438.84;5046355;28;8861;-79
2021/12/12 00:30:03;;;;;;;;;2.20;2.20;;;;;4.13;81.28;100437.94;5048941;28;8873;-81
2021/12/12 00:32:31;;;;;;;;;1.80;1.80;;;;;4.13;81.25;100451.09;5048867;28;9711;-82
2021/12/12 00:35:00;;;;;;;;;1.60;1.20;;;;;4.12;81.41;100441.50;5048824;28;8842;-81
2021/12/12 00:37:28;;;;;;;;;3.00;0.60;;;;;4.11;81.33;100439.78;5048964;28;9479;-81
2021/12/12 00:39:56;;;;;;;;;1.60;1.60;;;;;4.10;81.54;100436.28;5048102;28;8888;-80
2021/12/12 00:42:24;;;;;;;;;0.60;0.60;;;;;4.11;81.29;100435.34;5048284;28;8870;-80
2021/12/12 00:44:51;;;;;;;;;5.60;4.40;;;;;4.11;81.34;100435.34;5048130;28;8850;-80
2021/12/12 00:47:19;;;;;;;;;3.80;3.00;;;;;4.10;81.26;100433.66;5049343;28;8920;-81
2021/12/12 00:50:05;;;;;;;;;3.80;3.20;;;;;4.12;81.52;100436.22;5049515;28;8887;-81
2021/12/12 00:52:36;;;;;;;;;1.80;1.80;;;;;4.10;81.51;100433.66;5050570;28;8866;-80
2021/12/12 00:55:03;;;;;;;;;1.80;1.80;;;;;4.11;80.93;100430.09;5050182;28;8936;-81
2021/12/12 00:57:31;;;;;;;;;3.00;2.60;;;;;4.10;81.01;100422.28;5049128;28;9016;-82
2021/12/12 00:59:59;;;;;;;;;3.20;2.20;;;;;4.10;81.40;100428.38;5049402;28;8866;-82
2021/12/12 01:02:27;;;;;;;;;1.80;1.00;;;;;4.10;81.62;100427.53;5048263;28;8972;-81
2021/12/12 01:04:55;;;;;;;;;2.60;1.00;;;;;4.09;81.06;100425.81;5048851;28;8928;-81
2021/12/12 01:07:22;;;;;;;;;2.20;2.20;;;;;4.10;81.20;100432.81;5048716;28;9505;-81
2021/12/12 01:09:50;;;;;;;;;3.00;3.00;;;;;4.10;81.56;100433.66;5048334;28;8862;-81
2021/12/12 01:12:18;;;;;;;;;3.00;3.00;;;;;4.12;81.63;100433.59;5048924;28;8861;-81
2021/12/12 01:14:45;;;;;;;;;6.80;6.00;;;;;4.12;81.38;100429.16;5048864;28;8846;-81
2021/12/12 01:17:13;;;;;;;;;0.00;0.00;;;;;4.14;81.46;100427.31;5048484;28;8870;-81
2021/12/12 01:19:41;;;;;;;;;2.60;2.60;;;;;4.16;81.41;100425.47;5049654;28;8872;-81
2021/12/12 01:22:09;;;;;;;;;3.60;3.00;;;;;4.19;81.06;100430.59;5048813;28;9068;-81
2021/12/12 01:24:36;;;;;;;;;3.60;2.60;;;;;4.20;81.21;100426.19;5048459;28;8873;-81
2021/12/12 01:27:04;;;;;;;;;2.20;1.00;;;;;4.21;80.45;100431.41;5049834;28;8861;-80
2021/12/12 01:29:32;;;;;;;;;4.00;3.00;;;;;4.22;80.73;100433.09;5049749;28;8854;-81
2021/12/12 01:32:00;;;;;;;;;3.80;3.00;;;;;4.24;81.35;100431.25;5049506;28;8869;-81
2021/12/12 01:34:29;;;;;;;;;4.00;3.00;;;;;4.25;80.45;100432.94;5048872;28;8846;-81
2021/12/12 01:37:10;;;;;;;;;2.20;2.20;;;;;4.28;81.00;100432.78;5049760;28;8869;-81
2021/12/12 01:39:37;;;;;;;;;5.00;4.00;;;;;4.29;80.54;100428.38;5047589;28;8874;-84
2021/12/12 01:42:05;;;;;;;;;3.00;1.80;;;;;4.31;80.74;100434.44;5048696;28;8838;-82
2021/12/12 01:44:33;;;;;;;;;3.00;1.40;;;;;4.30;80.88;100425.69;5048969;28;8904;-81
2021/12/12 01:47:00;;;;;;;;;1.80;1.00;;;;;4.30;80.61;100419.56;5048720;28;8868;-82
2021/12/12 01:49:28;;;;;;;;;2.20;2.20;;;;;4.29;81.05;100428.38;5048548;28;8853;-80
2021/12/12 01:51:57;;;;;;;;;6.00;6.00;;;;;4.29;81.05;100423.97;5049653;28;8893;-81
2021/12/12 01:54:26;;;;;;;;;0.60;0.00;;;;;4.29;80.96;100416.06;5048454;28;8854;-81
2021/12/12 01:56:55;;;;;;;;;1.00;1.00;;;;;4.31;80.44;100413.34;5048015;28;8882;-80
2021/12/12 01:59:22;;;;;;;;;1.00;1.00;;;;;4.31;80.80;100406.31;5048444;28;8858;-81
2021/12/12 02:01:50;;;;;;;;;2.20;2.20;;;;;4.32;80.78;100408.00;5048342;28;8850;-82
2021/12/12 02:04:18;;;;;;;;;1.00;1.00;;;;;4.32;80.22;100402.75;5049582;28;9194;-81
2021/12/12 02:06:46;;;;;;;;;1.00;1.00;;;;;4.32;79.98;100408.00;5048687;28;8876;-80
2021/12/12 02:09:14;;;;;;;;;1.80;1.80;;;;;4.32;80.33;100404.50;5047256;28;8884;-81
2021/12/12 02:11:43;;;;;;;;;1.40;1.00;;;;;4.33;80.02;100395.69;5049146;28;8991;-80
2021/12/12 02:14:11;;;;;;;;;1.00;1.00;;;;;4.32;80.11;100402.75;5048826;28;9120;-82
2021/12/12 02:16:39;;;;;;;;;2.20;2.20;;;;;4.34;79.94;100400.03;5048849;28;8904;-82
2021/12/12 02:19:06;;;;;;;;;0.00;0.00;;;;;4.36;80.27;100403.47;5048407;28;8862;-80
2021/12/12 02:21:38;;;;;;;;;1.00;1.00;;;;;4.37;79.99;100406.03;5047401;28;8978;-81
2021/12/12 02:24:37;;;;;;;;;3.00;1.40;;;;;4.39;80.17;100387.47;5047955;28;8857;-84
2021/12/12 02:35:22;;;;;;;;;1.00;1.00;;;;;4.40;79.93;100386.59;5048706;28;8843;-80
2021/12/12 02:37:54;;;;;;;;;1.80;1.40;;;;;4.41;79.67;100381.22;5047374;28;8861;-80
2021/12/12 02:40:22;;;;;;;;;1.00;1.00;;;;;4.44;80.11;100370.53;5047991;28;9533;-82
2021/12/12 02:42:50;;;;;;;;;3.60;2.60;;;;;4.45;79.97;100374.88;5048345;28;8884;-89
2021/12/12 02:45:19;;;;;;;;;3.20;3.00;;;;;4.46;79.58;100373.09;5048733;28;8851;-80
2021/12/12 02:47:53;;;;;;;;;0.00;0.00;;;;;4.47;79.38;100375.66;5048394;28;8956;-81
2021/12/12 02:50:21;;;;;;;;;3.00;3.00;;;;;4.49;79.43;100372.94;5048426;28;9235;-81
2021/12/12 02:52:49;;;;;;;;;0.20;0.20;;;;;4.50;79.14;100377.28;5049131;28;8842;-81
2021/12/12 02:55:17;;;;;;;;;0.20;0.20;;;;;4.52;79.17;100380.69;5049240;28;8858;-81
2021/12/12 02:57:45;;;;;;;;;0.00;0.00;;;;;4.54;79.41;100376.19;5048822;28;8862;-81
2021/12/12 03:00:12;;;;;;;;;0.60;0.60;;;;;4.56;78.99;100377.00;5052510;28;8862;-82
2021/12/12 03:02:45;;;;;;;;;2.20;0.00;;;;;4.59;78.98;100368.94;5052747;28;8854;-81
2021/12/12 03:05:13;;;;;;;;;3.00;3.00;;;;;4.59;79.11;100380.34;5050661;28;8843;-81
2021/12/12 03:07:41;;;;;;;;;1.00;1.00;;;;;4.62;79.15;100384.59;5052909;28;8838;-81
2021/12/12 03:10:08;;;;;;;;;1.00;1.00;;;;;4.63;79.22;100375.78;5051019;28;9496;-80
2021/12/12 03:12:36;;;;;;;;;3.00;3.00;;;;;4.64;79.32;100374.84;5052701;28;9549;-81
2021/12/12 03:15:04;;;;;;;;;1.00;1.00;;;;;4.64;78.72;100377.50;5051765;28;8904;-82
2021/12/12 03:17:31;;;;;;;;;3.20;2.80;;;;;4.66;79.36;100381.75;5051833;28;8968;-81
2021/12/12 03:19:59;;;;;;;;;3.80;2.60;;;;;4.67;78.92;100372.06;5051760;28;8882;-81
2021/12/12 03:22:27;;;;;;;;;1.00;1.00;;;;;4.66;79.35;100373.84;5051860;28;8838;-81
2021/12/12 03:24:55;;;;;;;;;2.60;2.60;;;;;4.66;79.01;100381.75;5051396;28;8866;-82
2021/12/12 03:27:23;;;;;;;;;6.00;3.20;;;;;4.67;79.14;100383.47;5053026;28;9565;-82
2021/12/12 03:29:52;;;;;;;;;1.00;1.00;;;;;4.69;79.55;100380.72;5052686;28;8858;-82
2021/12/12 03:32:23;;;;;;;;;1.00;1.00;;;;;4.75;79.08;100380.44;5051122;28;8941;-82
2021/12/12 03:34:52;;;;;;;;;1.80;1.80;;;;;4.81;78.92;100380.16;5051749;28;8850;-81
2021/12/12 03:37:20;;;;;;;;;2.40;1.00;;;;;4.84;78.26;100387.91;5051418;28;9116;-81
2021/12/12 03:39:48;;;;;;;;;1.40;1.00;;;;;4.89;78.30;100396.44;5050158;28;8862;-82
2021/12/12 03:42:15;;;;;;;;;1.00;1.00;;;;;4.94;78.35;100397.09;5051281;28;8862;-81
2021/12/12 03:44:43;;;;;;;;;2.20;2.20;;;;;4.99;78.36;100401.19;5052494;28;8846;-81
2021/12/12 03:47:11;;;;;;;;;3.00;0.00;;;;;5.02;78.20;100401.03;5050761;28;9164;-81
2021/12/12 03:49:39;;;;;;;;;0.20;0.20;;;;;5.06;78.15;100396.47;5050655;28;9127;-80
2021/12/12 03:52:16;;;;;;;;;1.00;1.00;;;;;5.08;78.18;100394.63;5051096;28;8858;-81
2021/12/12 03:54:43;;;;;;;;;1.00;1.00;;;;;5.12;78.03;100396.16;5052214;28;8850;-81
2021/12/12 03:57:11;;;;;;;;;0.00;0.00;;;;;5.17;77.80;100388.88;5053713;28;8855;-82
2021/12/12 03:59:39;;;;;;;;;1.00;1.00;;;;;5.20;78.14;100391.34;5053990;28;8848;-82
2021/12/12 04:02:07;;;;;;;;;3.00;3.00;;;;;5.20;78.35;100389.56;5054179;28;8882;-82
2021/12/12 04:04:34;;;;;;;;;0.00;0.00;;;;;5.20;78.18;100394.84;5050463;28;9496;-82
2021/12/12 04:07:02;;;;;;;;;2.40;2.20;;;;;5.20;78.25;100391.34;5051491;28;8939;-82
2021/12/12 04:09:30;;;;;;;;;3.00;3.00;;;;;5.20;77.78;100400.13;5049451;28;8864;-81
2021/12/12 04:12:00;;;;;;;;;0.00;0.00;;;;;5.19;78.10;100392.28;5051974;28;8957;-82
2021/12/12 04:14:28;;;;;;;;;0.00;0.00;;;;;5.19;78.15;100393.16;5051703;28;8985;-82
2021/12/12 04:16:55;;;;;;;;;3.00;1.00;;;;;5.20;78.19;100386.06;5050674;28;8858;-81
2021/12/12 04:19:23;;;;;;;;;0.80;0.80;;;;;5.20;78.31;100396.63;5051242;28;8854;-81
2021/12/12 04:21:51;;;;;;;;;1.00;1.00;;;;;5.21;77.72;100393.91;5051101;28;8878;-81
2021/12/12 04:24:19;;;;;;;;;1.00;1.00;;;;;5.21;78.11;100390.41;5051044;28;8855;-82
2021/12/12 04:26:46;;;;;;;;;0.80;0.20;;;;;5.19;78.51;100385.22;5050533;28;8944;-81
2021/12/12 04:29:14;;;;;;;;;1.00;1.00;;;;;5.16;78.19;100379.25;5050174;28;8842;-81
2021/12/12 04:31:42;;;;;;;;;0.60;0.60;;;;;5.11;78.84;100383.91;5049332;28;8843;-85
2021/12/12 04:34:09;;;;;;;;;2.00;1.00;;;;;5.06;78.52;100389.41;5050079;28;8858;-84
2021/12/12 04:36:37;;;;;;;;;1.80;1.80;;;;;5.02;78.53;100379.09;5050013;28;8846;-82
2021/12/12 04:39:05;;;;;;;;;1.00;1.00;;;;;4.98;78.74;100381.03;5049169;28;8872;-82
2021/12/12 04:41:33;;;;;;;;;0.60;0.20;;;;;4.97;79.02;100379.31;5048538;28;8870;-82
2021/12/12 04:44:00;;;;;;;;;1.80;1.80;;;;;4.98;78.91;100383.66;5050291;28;8847;-82
2021/12/12 04:46:37;;;;;;;;;2.00;1.00;;;;;4.98;79.06;100377.50;5050621;28;8854;-82
2021/12/12 04:51:50;;;;;;;;;0.00;0.00;;;;;4.98;79.24;100372.25;5049929;28;8854;-82
2021/12/12 04:54:18;;;;;;;;;0.60;0.60;;;;;4.99;79.32;100371.31;5049529;28;9594;-84
2021/12/12 04:56:47;;;;;;;;;1.00;1.00;;;;;4.98;78.98;100375.75;5049427;28;8839;-82
2021/12/12 04:59:15;;;;;;;;;1.00;1.00;;;;;4.98;79.06;100375.75;5049927;28;8846;-81
2021/12/12 05:01:44;;;;;;;;;1.00;1.00;;;;;4.97;79.35;100379.31;5049080;28;8851;-81
2021/12/12 05:04:12;;;;;;;;;4.80;3.00;;;;;4.97;79.50;100378.44;5049397;28;8854;-82
2021/12/12 05:06:39;;;;;;;;;2.20;2.20;;;;;4.94;79.46;100386.53;5049992;28;8834;-81
2021/12/12 05:09:07;;;;;;;;;3.20;2.60;;;;;4.90;79.87;100382.31;5049041;28;9214;-82
2021/12/12 05:11:35;;;;;;;;;0.20;0.20;;;;;4.86;79.70;100371.06;5050205;28;9116;-82
2021/12/12 05:14:05;;;;;;;;;0.40;0.00;;;;;4.84;79.72;100374.69;5049886;28;8858;-83
2021/12/12 05:16:33;;;;;;;;;2.60;2.20;;;;;4.81;79.47;100380.16;5049214;28;8843;-82
2021/12/12 05:19:05;;;;;;;;;4.00;3.00;;;;;4.78;80.10;100375.03;5049882;28;8846;-83
2021/12/12 05:21:34;;;;;;;;;0.40;0.00;;;;;4.76;80.32;100371.59;5049121;28;8987;-82
2021/12/12 05:24:01;;;;;;;;;1.00;0.60;;;;;4.75;80.30;100370.75;5048536;28;8866;-82
2021/12/12 05:26:29;;;;;;;;;1.00;1.00;;;;;4.76;80.26;100376.88;5049973;28;8847;-83
2021/12/12 05:28:57;;;;;;;;;1.00;0.40;;;;;4.74;80.04;100376.97;5050090;28;9532;-83
2021/12/12 05:31:26;;;;;;;;;3.60;3.40;;;;;4.75;80.03;100369.88;5048462;28;8877;-82
2021/12/12 05:33:54;;;;;;;;;1.00;1.00;;;;;4.77;80.48;100368.03;5047735;28;8864;-81
2021/12/12 05:36:22;;;;;;;;;1.00;1.00;;;;;4.81;80.13;100367.81;5048792;28;8850;-81
2021/12/12 05:38:50;;;;;;;;;4.40;4.40;;;;;4.88;80.00;100360.44;5047854;28;8842;-82
2021/12/12 05:41:18;;;;;;;;;1.00;1.00;;;;;4.93;79.85;100353.16;5047887;28;8949;-82
2021/12/12 05:43:46;;;;;;;;;1.80;1.80;;;;;4.97;80.04;100354.69;5047937;28;8850;-82
2021/12/12 05:46:15;;;;;;;;;2.60;2.60;;;;;5.03;79.89;100346.47;5047982;28;8858;-82
2021/12/12 05:48:44;;;;;;;;;3.00;1.00;;;;;5.07;79.88;100345.38;5048524;28;8846;-82
2021/12/12 05:51:13;;;;;;;;;1.40;1.40;;;;;5.14;79.29;100345.00;5049185;28;8874;-83
2021/12/12 05:53:41;;;;;;;;;3.00;3.00;;;;;5.19;79.46;100345.63;5048298;28;9206;-84
2021/12/12 05:56:08;;;;;;;;;1.00;1.00;;;;;5.26;79.33;100343.53;5048693;28;8854;-82
2021/12/12 05:58:36;;;;;;;;;0.80;0.00;;;;;5.31;79.50;100346.78;5047913;28;8885;-82
2021/12/12 06:01:04;;;;;;;;;1.80;1.00;;;;;5.33;79.39;100351.03;5046314;28;8854;-81
2021/12/12 06:03:33;;;;;;;;;0.00;0.00;;;;;5.37;79.37;100343.81;5048893;28;9306;-83
2021/12/12 06:06:01;;;;;;;;;3.80;3.80;;;;;5.41;79.42;100329.53;5046469;28;8842;-83
2021/12/12 06:08:29;;;;;;;;;0.60;0.60;;;;;5.44;79.38;100345.19;5048166;28;8842;-82
2021/12/12 06:10:56;;;;;;;;;0.80;0.80;;;;;5.48;78.70;100341.47;5048096;28;9182;-82
2021/12/12 06:13:24;;;;;;;;;1.40;1.40;;;;;5.50;79.00;100344.88;5049428;28;8861;-82
2021/12/12 06:15:53;;;;;;;;;1.00;1.00;;;;;5.46;79.23;100335.44;5047220;28;9194;-84
2021/12/12 06:18:21;;;;;;;;;1.00;1.00;;;;;5.39;78.69;100340.16;5047232;28;8859;-83
2021/12/12 06:20:49;;;;;;;;;3.20;3.20;;;;;5.36;79.23;100337.69;5048050;28;8862;-82
2021/12/12 06:23:16;;;;;;;;;3.00;3.00;;;;;5.35;79.53;100329.84;5047910;28;8857;-84
2021/12/12 06:25:44;;;;;;;;;2.20;1.00;;;;;5.36;79.53;100315.69;5047523;28;9508;-83
2021/12/12 06:28:12;;;;;;;;;3.80;3.80;;;;;5.35;79.76;100317.50;5048330;28;8855;-82
2021/12/12 06:30:40;;;;;;;;;0.20;0.20;;;;;5.31;79.74;100325.66;5048335;28;8854;-82
2021/12/12 06:33:08;;;;;;;;;2.20;2.20;;;;;5.26;79.56;100319.75;5048580;28;9294;-82
2021/12/12 06:35:35;;;;;;;;;3.80;3.80;;;;;5.20;79.95;100320.06;5052395;28;8850;-83
2021/12/12 06:38:04;;;;;;;;;0.00;0.00;;;;;5.16;80.77;100311.47;5050871;28;8944;-82
2021/12/12 06:40:32;;;;;;;;;0.20;0.20;;;;;5.14;80.52;100321.25;5052203;28;9100;-83
2021/12/12 06:42:59;;;;;;;;;1.40;1.40;;;;;5.13;81.00;100306.34;5052834;28;8973;-82
2021/12/12 06:45:27;;;;;;;;;0.80;0.60;;;;;5.14;80.73;100315.09;5052116;28;8868;-81
2021/12/12 06:47:55;;;;;;;;;0.00;0.00;;;;;5.18;81.00;100321.94;5052066;28;8972;-82
2021/12/12 06:50:24;;;;;;;;;2.60;2.60;;;;;5.22;81.17;100315.56;5051565;28;8866;-81
2021/12/12 06:52:56;;;;;;;;;3.00;2.60;;;;;5.27;81.17;100310.91;5051443;28;9147;-80
2021/12/12 06:55:23;;;;;;;;;1.00;1.00;;;;;5.31;80.58;100323.88;5052027;28;8846;-83
2021/12/12 06:57:56;;;;;;;;;1.00;1.00;;;;;5.35;80.45;100314.88;5051506;28;9120;-82
2021/12/12 07:00:24;;;;;;;;;1.00;1.00;;;;;5.42;80.75;100328.59;5049833;28;8961;-82
2021/12/12 07:02:52;;;;;;;;;0.40;0.40;;;;;5.47;81.19;100324.75;5050077;28;8850;-82
2021/12/12 07:05:20;;;;;;;;;0.80;0.80;;;;;5.51;80.81;100314.88;5050661;28;8854;-82
2021/12/12 07:07:48;;;;;;;;;1.40;1.40;;;;;5.54;80.72;100305.00;5050999;28;8884;-82
2021/12/12 07:10:16;;;;;;;;;1.40;1.40;;;;;5.58;80.49;100316.28;5049622;28;9573;-83
2021/12/12 07:12:55;;;;;;;;;2.20;2.20;;;;;5.57;81.15;100312.78;5050793;28;8855;-83
2021/12/12 07:15:22;;;;;;;;;0.60;0.60;;;;;5.58;80.79;100301.28;5050749;28;9555;-81
2021/12/12 07:17:51;;;;;;;;;1.00;0.00;;;;;5.60;81.62;100319.66;5048725;28;8823;-82
2021/12/12 07:20:19;;;;;;;;;3.20;3.00;;;;;5.61;81.32;100313.47;5050211;28;8878;-82
2021/12/12 07:22:47;;;;;;;;;3.00;1.00;;;;;5.63;82.04;100338.03;5049917;28;8853;-83
2021/12/12 07:25:18;;;;;;;;;3.00;1.40;;;;;5.67;81.97;100326.34;5049712;28;8858;-84
2021/12/12 07:27:48;;;;;;;;;1.80;1.80;;;;;5.72;81.89;100327.81;5050885;28;8925;-83
2021/12/12 07:30:16;;;;;;;;;1.00;1.00;;;;;5.74;82.49;100319.78;5050928;28;8842;-82
2021/12/12 07:32:44;;;;;;;;;1.00;1.00;;;;;5.73;82.61;100299.59;5049357;28;8831;-82
2021/12/12 07:35:12;;;;;;;;;1.00;0.00;;;;;5.70;82.42;100307.69;5050409;28;8855;-83
2021/12/12 07:37:39;;;;;;;;;1.80;1.80;;;;;5.65;83.11;100312.38;5049941;28;8858;-83
2021/12/12 07:40:07;;;;;;;;;0.00;0.00;;;;;5.62;83.17;100308.09;5048833;28;8854;-82
2021/12/12 07:42:35;;;;;;;;;0.60;0.60;;;;;5.59;83.97;100303.00;5050669;28;8866;-81
2021/12/12 07:45:02;;;;;;;;;1.00;1.00;;;;;5.59;83.84;100304.75;5050133;28;8846;-84
2021/12/12 07:47:30;;;;;;;;;1.00;1.00;;;;;5.57;84.19;100307.50;5050381;28;9360;-82
2021/12/12 07:49:58;;;;;;;;;0.00;0.00;;;;;5.57;84.23;100298.72;5049191;28;8859;-81
2021/12/12 07:52:26;;;;;;;;;2.20;1.00;;;;;5.58;84.32;100300.41;5048985;28;8860;-80
2021/12/12 07:54:54;;;;;;;;;0.80;0.40;;;;;5.57;84.50;100310.16;5050473;28;8874;-82
2021/12/12 07:57:21;;;;;;;;;2.20;1.80;;;;;5.60;84.74;100317.91;5049511;28;8862;-81
2021/12/12 07:59:49;;;;;;;;;0.60;0.00;;;;;5.60;84.76;100314.38;5048915;28;8958;-80
2021/12/12 08:02:17;;;;;;;;;0.00;0.00;;;;;5.63;84.51;100324.81;5049039;28;8886;-80
2021/12/12 08:04:45;;;;;;;;;1.00;1.00;;;;;5.65;84.69;100333.50;5048676;28;8924;-79
2021/12/12 08:07:15;;;;;;;;;0.60;0.40;;;;;5.65;84.34;100329.09;5048058;28;8850;-80
2021/12/12 08:09:43;;;;;;;;;0.40;0.40;;;;;5.67;84.92;100332.50;5046928;28;8838;-78
2021/12/12 08:12:11;;;;;;;;;0.00;0.00;;;;;5.70;85.00;100336.75;5048266;28;8870;-79
2021/12/12 08:14:38;;;;;;;;;0.00;0.00;;;;;5.72;84.81;100329.59;5048745;28;8882;-81
2021/12/12 08:17:07;;;;;;;;;0.00;0.00;;;;;5.75;85.25;100335.56;5047433;28;8976;-80
2021/12/12 08:19:35;;;;;;;;;0.00;0.00;;;;;5.78;84.89;100343.31;5049468;28;8877;-80
2021/12/12 08:22:08;;;;;;;;;0.20;0.20;;;;;5.80;84.79;100343.28;5048533;28;8847;-79
2021/12/12 08:24:36;;;;;;;;;0.00;0.00;;;;;5.81;84.95;100350.25;5047558;28;8936;-79
2021/12/12 08:27:04;;;;;;;;;0.00;0.00;;;;;5.84;85.17;100350.13;5048117;28;8856;-80
2021/12/12 08:29:32;;;;;;;;;0.00;0.00;;;;;5.86;85.00;100356.16;5047848;28;8850;-81
2021/12/12 08:32:00;;;;;;;;;1.00;1.00;;;;;5.89;84.52;100370.06;5046681;28;9557;-80
2021/12/12 08:34:28;;;;;;;;;3.00;1.40;;;;;5.92;84.81;100367.25;5046482;28;9181;-80
2021/12/12 08:36:58;;;;;;;;;0.00;0.00;;;;;5.96;84.40;100371.44;5045135;28;8850;-79
2021/12/12 08:39:27;;;;;;;;;0.00;0.00;;;;;6.02;84.10;100370.25;5046979;28;8839;-79
2021/12/12 08:42:00;;;;;;;;;0.40;0.40;;;;;6.06;84.37;100388.50;5046929;28;8857;-81
2021/12/12 08:44:32;;;;;;;;;0.40;0.40;;;;;6.09;84.43;100384.84;5048022;28;9120;-80
2021/12/12 08:47:00;;;;;;;;;0.80;0.40;;;;;6.14;84.34;100380.19;5047417;28;9108;-79
2021/12/12 08:49:28;;;;;;;;;0.00;0.00;;;;;6.17;84.33;100380.00;5046330;28;8873;-78
2021/12/12 08:51:57;;;;;;;;;0.40;0.40;;;;;6.22;83.95;100380.59;5047268;28;8838;-78
2021/12/12 08:54:27;;;;;;;;;0.40;0.40;;;;;6.25;83.94;100383.06;5046946;28;9508;-79
2021/12/12 08:57:01;;;;;;;;;0.00;0.00;;;;;6.27;83.98;100382.06;5045286;28;8846;-80
2021/12/12 08:59:29;;;;;;;;;0.00;0.00;;;;;6.31;83.81;100394.16;5044920;28;8835;-81
2021/12/12 09:01:57;;;;;;;;;0.00;0.00;;;;;6.33;83.59;100392.28;5043827;28;9100;-80
2021/12/12 09:04:25;;;;;;;;;0.00;0.00;;;;;6.37;83.42;100377.94;5045889;28;8905;-79
2021/12/12 09:06:57;;;;;;;;;0.00;0.00;;;;;6.41;83.44;100383.91;5045235;28;8835;-82
2021/12/12 09:09:24;;;;;;;;;0.00;0.00;;;;;6.44;83.59;100389.06;5043429;28;8839;-80
2021/12/12 09:11:52;;;;;;;;;0.00;0.00;;;;;6.46;82.76;100387.19;5045826;28;8830;-80
2021/12/12 09:14:20;;;;;;;;;1.40;1.40;;;;;6.48;83.27;100401.16;5046261;28;8842;-80
2021/12/12 09:16:48;;;;;;;;;0.00;0.00;;;;;6.50;83.14;100401.91;5045791;28;8842;-79
2021/12/12 09:19:15;;;;;;;;;0.00;0.00;;;;;6.52;83.23;100403.53;5046778;28;8850;-82
2021/12/12 09:21:48;;;;;;;;;0.00;0.00;;;;;6.52;83.28;100406.19;5044357;28;8847;-81
2021/12/12 09:24:17;;;;;;;;;0.00;0.00;;;;;6.53;83.26;100401.75;5044570;28;8846;-79
2021/12/12 09:26:45;;;;;;;;;0.60;0.40;;;;;6.48;83.45;100396.75;5046119;28;9199;-79
2021/12/12 09:29:13;;;;;;;;;0.00;0.00;;;;;6.44;83.91;100392.53;5043323;28;8838;-80
2021/12/12 09:31:40;;;;;;;;;0.80;0.00;;;;;6.42;83.76;100396.19;5043958;28;8872;-80
2021/12/12 09:34:08;;;;;;;;;0.60;0.60;;;;;6.38;83.81;100402.63;5045197;28;8875;-80
2021/12/12 09:36:36;;;;;;;;;0.00;0.00;;;;;6.34;84.11;100399.28;5045432;28;9005;-83
2021/12/12 09:39:04;;;;;;;;;0.00;0.00;;;;;6.33;84.23;100402.00;5043860;28;9273;-79
2021/12/12 09:41:32;;;;;;;;;0.80;0.80;;;;;6.34;84.61;100420.44;5043313;28;8913;-83
2021/12/12 09:43:59;;;;;;;;;0.00;0.00;;;;;6.36;84.52;100407.16;5047150;28;8874;-79
2021/12/12 09:46:31;;;;;;;;;0.00;0.00;;;;;6.38;84.94;100418.47;5045482;28;8838;-79
2021/12/12 09:51:44;;;;;;;;;0.00;0.00;;;;;6.45;84.39;100411.91;5046043;28;8854;-80
2021/12/12 09:54:13;;;;;;;;;0.00;0.00;;;;;6.48;84.56;100404.69;5044059;28;8919;-79
2021/12/12 09:56:41;;;;;;;;;0.00;0.00;;;;;6.54;84.54;100406.13;5044331;28;9665;-79
2021/12/12 09:59:09;;;;;;;;;0.00;0.00;;;;;6.57;84.59;100413.88;5045541;28;8854;-82
2021/12/12 10:01:37;;;;;;;;;0.40;0.40;;;;;6.59;84.32;100409.38;5045638;28;8865;-80
2021/12/12 10:04:05;;;;;;;;;0.40;0.40;;;;;6.63;84.51;100401.16;5044435;28;8940;-81
2021/12/12 10:06:34;;;;;;;;;0.40;0.00;;;;;6.70;84.69;100412.25;5044917;28;8871;-79
2021/12/12 10:09:03;;;;;;;;;0.00;0.00;;;;;6.74;84.62;100413.81;5049301;28;8904;-79
2021/12/12 10:11:30;;;;;;;;;0.00;0.00;;;;;6.77;84.09;100405.69;5050279;28;8854;-80
2021/12/12 10:13:58;;;;;;;;;0.00;0.00;;;;;6.79;84.20;100407.28;5047527;28;8905;-82
2021/12/12 10:16:26;;;;;;;;;0.75;0.00;;;;;6.82;84.04;100411.56;5047994;28;8863;-80
2021/12/12 10:18:55;;;;;;;;;0.75;0.75;;;;;6.84;84.01;100409.69;5049369;28;9025;-81
2021/12/12 10:21:24;;;;;;;;;0.80;0.00;;;;;6.85;84.30;100409.59;5048985;28;8855;-79
2021/12/12 10:23:56;;;;;;;;;0.00;0.00;;;;;6.88;84.42;100416.50;5049707;28;8981;-79
2021/12/12 10:26:25;;;;;;;;;0.00;0.00;;;;;6.90;83.87;100404.03;5047844;28;8862;-82
2021/12/12 10:28:53;;;;;;;;;0.00;0.00;;;;;6.89;84.01;100416.41;5048903;28;8878;-80
2021/12/12 10:31:22;;;;;;;;;0.50;0.50;;;;;6.86;84.26;100413.09;5047163;28;8908;-79
2021/12/12 10:33:49;;;;;;;;;0.00;0.00;;;;;6.83;84.42;100421.22;5048577;28;9246;-80
2021/12/12 10:36:17;;;;;;;;;0.50;0.50;;;;;6.77;84.59;100409.19;5048481;28;8835;-80
2021/12/12 10:38:45;;;;;;;;;0.00;0.00;;;;;6.75;84.42;100412.84;5047202;28;8842;-79
2021/12/12 10:41:13;;;;;;;;;0.00;0.00;;;;;6.73;84.41;100417.34;5047300;28;8953;-80
2021/12/12 10:43:41;;;;;;;;;0.60;0.00;;;;;6.74;84.76;100411.16;5048975;28;8879;-80
2021/12/12 10:46:09;;;;;;;;;1.00;1.00;;;;;6.75;84.57;100411.03;5047134;28;9148;-80
2021/12/12 10:48:36;;;;;;;;;0.00;0.00;;;;;6.77;84.49;100416.25;5048090;28;8854;-77
2021/12/12 10:51:04;;;;;;;;;1.00;1.00;;;;;6.79;85.22;100411.72;5048547;28;8996;-78
2021/12/12 10:53:34;;;;;;;;;0.00;0.00;;;;;6.78;84.63;100420.59;5046978;28;9065;-78
2021/12/12 10:56:01;;;;;;;;;0.00;0.00;;;;;6.78;84.70;100410.03;5047154;28;8842;-77
2021/12/12 10:58:29;;;;;;;;;0.00;0.00;;;;;6.77;84.74;100414.47;5043819;28;8845;-77
2021/12/12 11:00:57;;;;;;;;;0.00;0.00;;;;;6.78;85.14;100402.94;5042374;28;8853;-78
2021/12/12 11:03:25;;;;;;;;;0.20;0.20;;;;;6.78;85.02;100410.03;5046501;28;8850;-79
2021/12/12 11:05:52;;;;;;;;;0.50;0.00;;;;;6.80;84.80;100400.19;5046172;28;8855;-78
2021/12/12 11:08:20;;;;;;;;;0.00;0.00;;;;;6.85;84.98;100403.44;5045542;28;9024;-80
2021/12/12 11:11:01;;;;;;;;;0.00;0.00;;;;;6.88;85.35;100395.31;5045651;28;8929;-79
2021/12/12 11:13:29;;;;;;;;;0.75;0.50;;;;;6.92;84.95;100396.84;5047140;28;8936;-79
2021/12/12 11:15:56;;;;;;;;;0.00;0.00;;;;;6.96;85.03;100393.94;5044209;28;8870;-79
2021/12/12 11:18:25;;;;;;;;;5.20;3.00;;;;;7.01;85.18;100397.19;5045325;28;8877;-79
2021/12/12 11:20:54;;;;;;;;;0.50;0.50;;;;;7.04;85.27;100391.69;5045592;28;8858;-80
2021/12/12 11:23:22;;;;;;;;;1.00;1.00;;;;;7.06;85.56;100395.09;5044381;28;9547;-80
2021/12/12 11:25:49;;;;;;;;;1.40;1.00;;;;;7.10;85.39;100390.50;5044948;28;8904;-78
2021/12/12 11:28:17;;;;;;;;;1.00;1.00;;;;;7.14;85.51;100399.97;5046828;28;8855;-79
2021/12/12 11:30:45;;;;;;;;;1.50;1.00;;;;;7.16;85.49;100387.50;5045430;28;8902;-79
2021/12/12 11:33:12;;;;;;;;;0.00;0.00;;;;;7.16;85.50;100392.78;5046482;28;8862;-79
2021/12/12 11:35:40;;;;;;;;;1.00;1.00;;;;;7.15;85.92;100383.13;5043934;28;8855;-78
2021/12/12 11:38:08;;;;;;;;;1.00;1.00;;;;;7.15;85.38;100391.94;5043032;28;8864;-78
2021/12/12 11:40:35;;;;;;;;;0.75;0.75;;;;;7.15;85.94;100397.25;5045806;28;8858;-78
2021/12/12 11:43:03;;;;;;;;;3.50;1.50;;;;;7.15;86.01;100393.72;5042681;28;8835;-79
2021/12/12 11:45:31;;;;;;;;;0.75;0.75;;;;;7.18;85.79;100393.53;5045037;28;9585;-80
2021/12/12 11:47:59;;;;;;;;;1.00;1.00;;;;;7.20;85.92;100395.16;5044665;28;8950;-80
2021/12/12 11:50:27;;;;;;;;;1.00;1.00;;;;;7.23;86.41;100397.66;5045279;28;9147;-79
2021/12/12 11:52:55;;;;;;;;;0.25;0.25;;;;;7.26;85.80;100386.00;5042362;28;8940;-79
2021/12/12 11:55:22;;;;;;;;;0.50;0.50;;;;;7.30;86.19;100393.69;5044118;28;8956;-79
2021/12/12 11:57:50;;;;;;;;;1.00;1.00;;;;;7.35;86.05;100396.06;5042427;28;8851;-80
2021/12/12 12:00:18;;;;;;;;;2.00;1.00;;;;;7.39;85.77;100393.16;5041522;28;8873;-78